Time;durP1;ratioP1;P1;durP2;ratioP2;P2;SDS_P1;SDS_P2;PMS_P1;PMS_P2;Temp;Humidity;BMP_temperature;BMP_pressure;BME280_temperature;BME280_humidity;BME280_pressure;Samples;Min_cycle;Max_cycle;Signal;HPM_P1;HPM_P2
2022/05/16 00:00:59;;;;;;;0.40;0.20;;;;;;;14.56;47.23;100764.60;103634;1277;138209;-67
2022/05/16 00:03:27;;;;;;;0.40;0.20;;;;;;;14.56;47.32;100767.83;103799;1277;95612;-65
2022/05/16 00:05:55;;;;;;;0.40;0.20;;;;;;;14.54;47.29;100773.95;103525;1277;138095;-66
2022/05/16 00:08:24;;;;;;;0.40;0.20;;;;;;;14.49;47.66;100767.35;103521;1276;99590;-64
2022/05/16 00:10:52;;;;;;;0.40;0.30;;;;;;;14.45;47.56;100773.59;103639;1277;138527;-65
2022/05/16 00:13:21;;;;;;;0.40;0.20;;;;;;;14.45;47.46;100772.52;103604;1276;95644;-65
2022/05/16 00:15:49;;;;;;;0.40;0.30;;;;;;;14.44;47.58;100777.02;107686;1276;93353;-64
2022/05/16 00:18:17;;;;;;;0.40;0.20;;;;;;;14.38;47.61;100778.64;107586;1275;138022;-65
2022/05/16 00:20:46;;;;;;;0.40;0.20;;;;;;;14.38;47.76;100785.96;107709;1277;98551;-66
2022/05/16 00:23:14;;;;;;;0.40;0.20;;;;;;;14.39;47.79;100782.91;103750;1277;138392;-64
2022/05/16 00:25:42;;;;;;;0.40;0.20;;;;;;;14.40;47.76;100783.77;103690;1277;95245;-64
2022/05/16 00:28:09;;;;;;;0.40;0.30;;;;;;;14.36;47.80;100787.64;103626;1277;95614;-66
2022/05/16 00:30:37;;;;;;;0.40;0.30;;;;;;;14.32;48.06;100786.73;103572;1277;138127;-65
2022/05/16 00:33:06;;;;;;;0.40;0.20;;;;;;;14.27;48.28;100788.86;103652;1277;98329;-65
2022/05/16 00:35:34;;;;;;;0.40;0.20;;;;;;;14.26;48.45;100787.85;103553;1275;138201;-65
2022/05/16 00:38:02;;;;;;;0.40;0.30;;;;;;;14.19;48.55;100790.23;103741;1276;95338;-65
2022/05/16 00:40:30;;;;;;;0.40;0.30;;;;;;;14.13;48.70;100794.54;103738;1276;95870;-64
2022/05/16 00:43:40;;;;;;;0.40;0.30;;;;;;;14.06;48.84;100795.29;103515;1277;137961;-65
2022/05/16 00:46:08;;;;;;;0.40;0.20;;;;;;;14.07;48.84;100798.86;103697;1277;99415;-65
2022/05/16 00:48:36;;;;;;;0.40;0.20;;;;;;;14.10;48.89;100795.34;103617;1277;138564;-64
2022/05/16 00:51:08;;;;;;;0.40;0.20;;;;;;;14.08;48.84;100800.44;103591;1276;95351;-64
2022/05/16 00:53:37;;;;;;;0.40;0.20;;;;;;;14.04;49.13;100800.18;103510;1277;138036;-64
2022/05/16 00:56:06;;;;;;;0.40;0.30;;;;;;;13.97;49.49;100806.35;103676;1277;109710;-64
2022/05/16 00:58:36;;;;;;;0.40;0.30;;;;;;;13.92;49.56;100805.95;103711;1277;99417;-65
2022/05/16 01:04:47;;;;;;;0.40;0.30;;;;;;;13.82;49.84;100803.46;104108;1276;138177;-64
2022/05/16 01:06:44;;;;;;;0.40;0.30;;;;;;;13.71;49.84;100804.50;103669;1277;138109;-64
2022/05/16 01:09:13;;;;;;;0.40;0.30;;;;;;;13.74;49.87;100802.27;103576;1276;109743;-65
2022/05/16 01:11:41;;;;;;;0.40;0.30;;;;;;;13.67;50.11;100810.00;103576;1277;138845;-63
2022/05/16 01:14:09;;;;;;;0.40;0.30;;;;;;;13.64;50.26;100809.55;104229;1276;108796;-64
2022/05/16 01:16:37;;;;;;;0.40;0.30;;;;;;;13.56;50.62;100809.11;103605;1277;95210;-64
2022/05/16 01:19:05;;;;;;;0.40;0.30;;;;;;;13.47;50.99;100809.20;103593;1276;95726;-63
2022/05/16 01:21:41;;;;;;;0.40;0.30;;;;;;;13.37;51.15;100808.98;103702;1277;108720;-65
2022/05/16 01:24:16;;;;;;;0.40;0.30;;;;;;;13.33;51.48;100810.70;103545;1276;139188;-66
2022/05/16 01:26:44;;;;;;;0.40;0.30;;;;;;;13.21;51.82;100809.81;103827;1276;108721;-64
2022/05/16 01:29:12;;;;;;;0.40;0.30;;;;;;;13.21;51.90;100809.81;103456;1276;138501;-65
2022/05/16 01:31:42;;;;;;;0.40;0.30;;;;;;;13.16;52.06;100810.48;103708;1277;95736;-65
2022/05/16 01:34:11;;;;;;;0.40;0.30;;;;;;;13.17;52.03;100814.04;103599;1276;109816;-64
2022/05/16 01:36:39;;;;;;;0.40;0.30;;;;;;;13.14;52.11;100814.84;103554;1276;138357;-65
2022/05/16 01:39:07;;;;;;;0.40;0.30;;;;;;;13.12;52.13;100814.35;103584;1277;108858;-62
2022/05/16 01:41:35;;;;;;;0.40;0.30;;;;;;;13.04;52.44;100818.86;103464;1276;138534;-63
2022/05/16 01:44:04;;;;;;;0.40;0.30;;;;;;;12.99;52.47;100818.83;103631;1277;95349;-65
2022/05/16 01:46:39;;;;;;;0.40;0.30;;;;;;;12.91;52.68;100818.89;103581;1276;109734;-65
2022/05/16 01:49:10;;;;;;;0.40;0.30;;;;;;;12.85;52.95;100817.80;103580;1276;99341;-63
2022/05/16 01:51:39;;;;;;;0.40;0.30;;;;;;;12.82;52.99;100822.71;103644;1276;108844;-65
2022/05/16 01:54:07;;;;;;;0.40;0.30;;;;;;;12.78;53.04;100816.27;103705;1276;138750;-64
2022/05/16 01:56:36;;;;;;;0.40;0.30;;;;;;;12.78;53.03;100815.71;103673;1277;95903;-65
2022/05/16 01:59:05;;;;;;;0.40;0.20;;;;;;;12.75;53.22;100822.91;103602;1276;138825;-63
2022/05/16 02:01:33;;;;;;;0.40;0.30;;;;;;;12.69;53.42;100824.52;103758;1277;99367;-63
2022/05/16 02:04:02;;;;;;;0.40;0.30;;;;;;;12.64;53.51;100825.55;103812;1276;108758;-63
2022/05/16 02:06:31;;;;;;;0.40;0.30;;;;;;;12.61;53.54;100828.12;103657;1277;139411;-64
2022/05/16 02:08:59;;;;;;;0.40;0.30;;;;;;;12.56;53.56;100832.20;103738;1277;95209;-65
2022/05/16 02:11:27;;;;;;;0.40;0.30;;;;;;;12.46;53.86;100832.09;103527;1277;138451;-65
2022/05/16 02:13:55;;;;;;;0.40;0.30;;;;;;;12.43;54.00;100836.27;103662;1277;99371;-65
2022/05/16 02:16:23;;;;;;;0.40;0.30;;;;;;;12.49;53.96;100840.20;103659;1277;108758;-65
2022/05/16 02:18:52;;;;;;;0.40;0.30;;;;;;;12.46;54.13;100837.44;103546;1277;138360;-63
2022/05/16 02:26:53;;;;;;;0.40;0.30;;;;;;;12.59;53.99;100842.08;103563;1276;99541;-63
2022/05/16 02:29:21;;;;;;;0.40;0.30;;;;;;;12.53;54.07;100847.38;103556;1277;138907;-63
2022/05/16 02:31:50;;;;;;;0.40;0.30;;;;;;;12.53;54.07;100848.80;104025;1277;96677;-65
2022/05/16 02:34:18;;;;;;;0.40;0.30;;;;;;;12.49;54.22;100844.65;103632;1276;96415;-65
2022/05/16 02:36:46;;;;;;;0.40;0.30;;;;;;;12.48;54.30;100851.29;103558;1277;138600;-65
2022/05/16 02:39:16;;;;;;;0.40;0.30;;;;;;;12.47;54.55;100852.21;103686;1276;99325;-66
2022/05/16 02:41:44;;;;;;;0.40;0.30;;;;;;;12.43;54.55;100856.21;103674;1276;138240;-66
2022/05/16 02:44:13;;;;;;;0.40;0.30;;;;;;;12.45;54.66;100857.42;103661;1277;95309;-64
2022/05/16 02:46:42;;;;;;;0.40;0.30;;;;;;;12.43;54.72;100857.48;103608;1277;138875;-64
2022/05/16 02:49:10;;;;;;;0.40;0.30;;;;;;;12.35;55.00;100855.01;103649;1277;109704;-65
2022/05/16 02:51:38;;;;;;;0.40;0.30;;;;;;;12.27;55.17;100855.74;103727;1276;99469;-63
2022/05/16 02:54:07;;;;;;;0.40;0.30;;;;;;;12.26;55.21;100862.73;103592;1277;138544;-64
2022/05/16 02:56:35;;;;;;;0.40;0.30;;;;;;;12.19;55.51;100865.01;103599;1276;95691;-63
2022/05/16 02:59:03;;;;;;;0.40;0.30;;;;;;;12.20;55.60;100863.56;103471;1276;138742;-64
2022/05/16 03:01:34;;;;;;;0.40;0.30;;;;;;;12.16;55.54;100862.41;103638;1277;109881;-63
2022/05/16 03:04:03;;;;;;;0.40;0.30;;;;;;;12.12;55.78;100861.80;103834;1276;99669;-63
2022/05/16 03:06:31;;;;;;;0.40;0.30;;;;;;;12.14;55.72;100860.34;103630;1276;138551;-65
2022/05/16 03:08:59;;;;;;;0.40;0.30;;;;;;;12.22;55.61;100856.59;104024;1277;96493;-63
2022/05/16 03:11:27;;;;;;;0.40;0.30;;;;;;;12.18;55.93;100857.21;103561;1276;138210;-63
2022/05/16 03:13:55;;;;;;;0.40;0.30;;;;;;;12.16;55.89;100854.24;103652;1276;108745;-64
2022/05/16 03:16:23;;;;;;;0.40;0.30;;;;;;;12.08;56.00;100850.88;103671;1276;98937;-63
2022/05/16 03:18:51;;;;;;;0.40;0.30;;;;;;;12.07;56.23;100853.58;103526;1277;138962;-64
2022/05/16 03:21:20;;;;;;;0.40;0.30;;;;;;;12.11;56.14;100858.48;103706;1277;96111;-65
2022/05/16 03:23:48;;;;;;;0.40;0.30;;;;;;;12.17;56.19;100862.40;103702;1277;138386;-65
2022/05/16 03:26:16;;;;;;;0.40;0.40;;;;;;;12.18;55.99;100863.09;103799;1277;110286;-65
2022/05/16 03:28:44;;;;;;;0.40;0.30;;;;;;;12.16;55.97;100860.48;103560;1276;139397;-65
2022/05/16 03:31:12;;;;;;;0.40;0.30;;;;;;;12.22;55.83;100859.42;103724;1276;107983;-64
2022/05/16 03:33:40;;;;;;;0.40;0.30;;;;;;;12.31;55.68;100858.13;103698;1277;95421;-64
2022/05/16 03:36:09;;;;;;;0.40;0.30;;;;;;;12.36;55.94;100859.95;103552;1277;138302;-64
2022/05/16 03:41:24;;;;;;;0.40;0.30;;;;;;;12.45;55.81;100858.66;103569;1277;138979;-65
2022/05/16 03:43:52;;;;;;;0.40;0.30;;;;;;;12.47;55.30;100859.13;103597;1277;108837;-64
2022/05/16 03:46:20;;;;;;;0.40;0.30;;;;;;;12.58;55.04;100857.79;103626;1277;97654;-65
2022/05/16 03:48:48;;;;;;;0.40;0.30;;;;;;;12.68;54.50;100859.46;103737;1277;139048;-65
2022/05/16 03:51:17;;;;;;;0.40;0.30;;;;;;;12.68;54.45;100856.96;103616;1277;109897;-63
2022/05/16 03:53:46;;;;;;;0.40;0.30;;;;;;;12.73;54.37;100862.00;104087;1277;138034;-63
2022/05/16 03:56:16;;;;;;;0.40;0.30;;;;;;;12.82;54.24;100862.98;103587;1277;180167;-63
2022/05/16 03:58:45;;;;;;;0.40;0.30;;;;;;;12.90;54.21;100861.17;103582;1277;139582;-64
2022/05/16 04:01:14;;;;;;;0.40;0.30;;;;;;;12.89;53.99;100864.40;103670;1277;96369;-63
2022/05/16 04:03:42;;;;;;;0.40;0.30;;;;;;;12.86;54.07;100868.20;103889;1276;109477;-64
2022/05/16 04:06:13;;;;;;;0.40;0.30;;;;;;;12.87;53.88;100871.60;103508;1277;138645;-64
2022/05/16 04:08:45;;;;;;;0.40;0.30;;;;;;;12.76;54.05;100870.13;103561;1277;108896;-63
2022/05/16 04:11:16;;;;;;;0.40;0.30;;;;;;;12.77;53.88;100874.54;103544;1276;138448;-65
2022/05/16 04:13:45;;;;;;;0.40;0.30;;;;;;;12.79;53.93;100874.13;103668;1275;95219;-64
2022/05/16 04:16:14;;;;;;;0.40;0.40;;;;;;;12.83;54.11;100879.70;103753;1274;109702;-63
2022/05/16 04:18:44;;;;;;;0.40;0.30;;;;;;;12.89;53.87;100880.98;103712;1277;141552;-64
2022/05/16 04:21:13;;;;;;;0.40;0.30;;;;;;;12.94;54.02;100877.27;103816;1277;108853;-64
2022/05/16 04:23:41;;;;;;;0.40;0.30;;;;;;;13.05;54.00;100875.88;103890;1274;140007;-65
2022/05/16 04:26:09;;;;;;;0.40;0.30;;;;;;;13.11;53.46;100879.10;103709;1277;95220;-65
2022/05/16 04:28:37;;;;;;;0.40;0.30;;;;;;;13.06;53.13;100882.08;103883;1277;109848;-64
2022/05/16 04:31:05;;;;;;;0.40;0.30;;;;;;;13.10;53.28;100882.15;103601;1276;99580;-65
2022/05/16 04:33:35;;;;;;;0.40;0.30;;;;;;;13.13;53.70;100882.42;103684;1274;107783;-65
2022/05/16 04:36:03;;;;;;;0.40;0.30;;;;;;;13.14;54.12;100879.37;103661;1277;138815;-64
2022/05/16 04:38:31;;;;;;;0.40;0.30;;;;;;;13.14;53.83;100883.65;103681;1277;95225;-63
2022/05/16 04:43:47;;;;;;;0.40;0.30;;;;;;;13.28;53.14;100885.22;103671;1277;99521;-63
2022/05/16 04:46:15;;;;;;;0.40;0.30;;;;;;;13.32;53.01;100888.48;103806;1274;108790;-64
2022/05/16 04:48:43;;;;;;;0.40;0.30;;;;;;;13.32;52.77;100890.98;103580;1274;138872;-64
2022/05/16 04:51:12;;;;;;;0.40;0.30;;;;;;;13.42;52.80;100890.16;104093;1274;95623;-65
2022/05/16 04:53:40;;;;;;;0.40;0.30;;;;;;;13.49;52.61;100894.23;103683;1277;138124;-64
2022/05/16 04:56:09;;;;;;;0.40;0.30;;;;;;;13.46;52.62;100889.88;103737;1277;99387;-63
2022/05/16 04:58:37;;;;;;;0.40;0.30;;;;;;;13.53;52.70;100884.48;103709;1276;107413;-65
2022/05/16 05:01:05;;;;;;;0.40;0.30;;;;;;;13.53;52.75;100883.23;103667;1276;95668;-64
2022/05/16 05:03:34;;;;;;;0.40;0.30;;;;;;;13.48;52.86;100882.33;103730;1277;95992;-65
2022/05/16 05:06:03;;;;;;;0.40;0.30;;;;;;;13.49;52.97;100877.13;103709;1276;138577;-64
2022/05/16 05:08:31;;;;;;;0.40;0.30;;;;;;;13.55;52.83;100880.14;103557;1274;98355;-65
2022/05/16 05:16:35;;;;;;;0.40;0.30;;;;;;;13.82;51.80;100880.01;103665;1277;95208;-63
2022/05/16 05:19:03;;;;;;;0.40;0.30;;;;;;;13.85;51.68;100882.05;103642;1277;139057;-65
2022/05/16 05:21:31;;;;;;;0.40;0.30;;;;;;;13.96;51.75;100882.42;103888;1277;99824;-65
2022/05/16 05:24:01;;;;;;;0.40;0.30;;;;;;;14.07;51.55;100887.25;103716;1274;138654;-66
2022/05/16 05:26:29;;;;;;;0.40;0.30;;;;;;;14.16;51.19;100886.55;103643;1274;95802;-65
2022/05/16 05:28:57;;;;;;;0.40;0.30;;;;;;;14.17;50.92;100885.10;103828;1277;138483;-64
2022/05/16 05:31:25;;;;;;;0.40;0.20;;;;;;;14.22;50.95;100883.52;103662;1274;109692;-66
2022/05/16 05:33:54;;;;;;;0.40;0.30;;;;;;;14.25;50.67;100881.98;103790;1277;99980;-67
2022/05/16 05:36:25;;;;;;;0.40;0.30;;;;;;;14.30;50.35;100879.89;103732;1277;138142;-65
2022/05/16 05:38:53;;;;;;;0.40;0.20;;;;;;;14.36;50.47;100878.41;103827;1277;95287;-66
2022/05/16 05:41:23;;;;;;;0.40;0.20;;;;;;;14.41;49.97;100878.42;103609;1276;138310;-66
2022/05/16 05:43:51;;;;;;;0.40;0.20;;;;;;;14.45;49.71;100879.35;103743;1277;109705;-65
2022/05/16 05:46:20;;;;;;;0.40;0.30;;;;;;;14.55;49.94;100881.14;104074;1277;99838;-65
2022/05/16 05:48:48;;;;;;;0.40;0.20;;;;;;;14.66;49.77;100886.33;103708;1277;138189;-65
2022/05/16 05:51:16;;;;;;;0.40;0.30;;;;;;;14.65;49.22;100887.95;103900;1277;97084;-65
2022/05/16 05:53:45;;;;;;;0.40;0.30;;;;;;;14.63;49.16;100892.66;103618;1277;139003;-67
2022/05/16 05:56:13;;;;;;;0.40;0.20;;;;;;;14.67;48.85;100891.30;103794;1277;109735;-67
2022/05/16 05:58:42;;;;;;;0.40;0.20;;;;;;;14.72;48.17;100892.20;103901;1277;138560;-66
2022/05/16 06:01:10;;;;;;;0.40;0.30;;;;;;;14.74;47.92;100891.95;103824;1277;109030;-66
2022/05/16 06:03:39;;;;;;;0.40;0.20;;;;;;;14.74;47.81;100891.96;103750;1277;95649;-65
2022/05/16 06:06:07;;;;;;;0.40;0.30;;;;;;;14.80;47.97;100895.84;103752;1277;138147;-65
2022/05/16 06:08:35;;;;;;;0.40;0.30;;;;;;;14.90;47.43;100892.11;103665;1277;109952;-65
2022/05/16 06:11:03;;;;;;;0.40;0.20;;;;;;;14.94;47.26;100892.14;103009;1277;138738;-66
2022/05/16 06:13:32;;;;;;;0.40;0.20;;;;;;;14.90;46.91;100890.51;103523;1277;109079;-66
2022/05/16 06:16:00;;;;;;;0.40;0.20;;;;;;;14.96;47.72;100891.52;103621;1277;95451;-66
2022/05/16 06:18:28;;;;;;;0.40;0.20;;;;;;;15.14;46.42;100887.27;103612;1277;138887;-64
2022/05/16 06:20:56;;;;;;;0.40;0.20;;;;;;;15.19;44.80;100890.31;103749;1277;109756;-65
2022/05/16 06:23:24;;;;;;;0.40;0.20;;;;;;;15.19;45.21;100887.96;103604;1276;138951;-66
2022/05/16 06:25:53;;;;;;;0.40;0.20;;;;;;;15.30;44.64;100887.20;103686;1277;108831;-66
2022/05/16 06:28:24;;;;;;;0.40;0.20;;;;;;;15.34;43.30;100887.23;103706;1277;95216;-66
2022/05/16 06:30:52;;;;;;;0.40;0.20;;;;;;;15.46;43.33;100883.57;103639;1277;138519;-66
2022/05/16 06:33:22;;;;;;;0.40;0.20;;;;;;;15.86;42.84;100881.80;103741;1277;109766;-65
2022/05/16 06:35:50;;;;;;;0.40;0.20;;;;;;;16.28;42.22;100884.38;103594;1277;138759;-65
2022/05/16 06:38:21;;;;;;;0.40;0.20;;;;;;;16.47;41.51;100886.11;103615;1277;108905;-65
2022/05/16 06:40:50;;;;;;;0.40;0.20;;;;;;;16.68;40.97;100881.41;103510;1275;138618;-65
2022/05/16 06:43:21;;;;;;;0.40;0.20;;;;;;;17.05;40.35;100877.11;103961;1277;95118;-65
2022/05/16 06:45:50;;;;;;;0.40;0.20;;;;;;;17.17;39.77;100878.36;103939;1275;110286;-65
2022/05/16 06:48:18;;;;;;;0.40;0.20;;;;;;;17.20;40.26;100882.71;103907;1277;138460;-64
2022/05/16 06:50:48;;;;;;;0.40;0.20;;;;;;;17.19;40.39;100887.07;103796;1277;109154;-66
2022/05/16 06:53:28;;;;;;;0.40;0.20;;;;;;;17.17;39.18;100885.73;103692;1277;138607;-66
2022/05/16 06:55:57;;;;;;;0.40;0.10;;;;;;;16.99;39.19;100891.39;103789;1277;95591;-67
2022/05/16 06:58:26;;;;;;;0.40;0.10;;;;;;;17.03;39.40;100890.13;103836;1275;109669;-65
2022/05/16 07:00:55;;;;;;;0.40;0.20;;;;;;;17.12;38.01;100885.79;103616;1277;138359;-64
2022/05/16 07:03:24;;;;;;;0.40;0.10;;;;;;;17.16;38.76;100891.31;103865;1277;108961;-66
2022/05/16 07:05:52;;;;;;;0.40;0.10;;;;;;;17.31;38.86;100890.49;103903;1277;138617;-65
2022/05/16 07:08:21;;;;;;;0.40;0.10;;;;;;;17.35;38.41;100887.23;103862;1277;95133;-65
2022/05/16 07:10:51;;;;;;;0.40;0.10;;;;;;;17.33;37.97;100888.41;103589;1277;138897;-67
2022/05/16 07:13:24;;;;;;;0.40;0.10;;;;;;;17.34;38.01;100889.95;103577;1277;99493;-65
2022/05/16 07:15:54;;;;;;;0.40;0.20;;;;;;;17.44;37.97;100893.61;103647;1275;108755;-65
2022/05/16 07:18:23;;;;;;;0.40;0.10;;;;;;;17.46;36.83;100890.11;103676;1277;138357;-66
2022/05/16 07:20:52;;;;;;;0.40;0.10;;;;;;;17.47;37.01;100896.20;104027;1275;95738;-66
2022/05/16 07:23:20;;;;;;;0.40;0.10;;;;;;;17.45;37.06;100895.38;103741;1274;139267;-66
2022/05/16 07:28:36;;;;;;;0.40;0.10;;;;;;;17.49;37.73;100900.56;103669;1277;108824;-66
2022/05/16 07:31:04;;;;;;;0.40;0.20;;;;;;;17.48;36.94;100902.95;103716;1277;95649;-68
2022/05/16 07:33:34;;;;;;;0.40;0.10;;;;;;;17.34;35.21;100900.20;103913;1276;96127;-66
2022/05/16 07:36:03;;;;;;;0.40;0.10;;;;;;;17.23;36.19;100904.15;103685;1277;138073;-66
2022/05/16 07:38:31;;;;;;;0.40;0.20;;;;;;;17.30;36.49;100901.30;103789;1277;98892;-67
2022/05/16 07:41:00;;;;;;;0.40;0.20;;;;;;;17.43;36.56;100902.31;103615;1276;138973;-65
2022/05/16 07:43:28;;;;;;;0.40;0.20;;;;;;;17.60;35.60;100901.33;103737;1277;95519;-65
2022/05/16 07:45:56;;;;;;;0.40;0.20;;;;;;;17.62;35.38;100903.77;103720;1277;95152;-66
2022/05/16 07:48:24;;;;;;;0.40;0.10;;;;;;;17.81;35.77;100907.33;103571;1277;138265;-66
2022/05/16 07:50:52;;;;;;;0.40;0.10;;;;;;;18.03;35.49;100898.36;103650;1277;99869;-66
2022/05/16 07:53:20;;;;;;;0.40;0.10;;;;;;;18.18;34.53;100900.33;103504;1277;138521;-65
2022/05/16 07:55:54;;;;;;;0.40;0.10;;;;;;;18.27;33.98;100897.21;103653;1277;95665;-65
2022/05/16 07:58:25;;;;;;;0.40;0.10;;;;;;;18.38;33.79;100899.33;103699;1277;95738;-64
2022/05/16 08:00:55;;;;;;;0.40;0.10;;;;;;;18.47;33.48;100899.58;103703;1277;138153;-66
2022/05/16 08:03:26;;;;;;;0.40;0.10;;;;;;;18.52;32.26;100895.90;103738;1277;100214;-65
2022/05/16 08:05:55;;;;;;;0.40;0.10;;;;;;;18.41;32.31;100896.52;103602;1277;138247;-65
2022/05/16 08:11:11;;;;;;;0.40;0.10;;;;;;;18.53;32.38;100896.39;103501;1277;138204;-66
2022/05/16 08:13:41;;;;;;;0.40;0.10;;;;;;;18.65;32.29;100894.50;103967;1277;110114;-65
2022/05/16 08:16:10;;;;;;;0.40;0.10;;;;;;;18.69;30.78;100895.77;103734;1277;99538;-66
2022/05/16 08:18:38;;;;;;;0.40;0.10;;;;;;;18.70;30.60;100899.84;103543;1276;138048;-67
2022/05/16 08:21:07;;;;;;;0.40;0.10;;;;;;;18.71;30.99;100898.90;103621;1276;95225;-65
2022/05/16 08:23:35;;;;;;;0.40;0.10;;;;;;;18.68;30.17;100899.77;103539;1277;138271;-66
2022/05/16 08:26:04;;;;;;;0.40;0.10;;;;;;;18.74;30.75;100894.77;104008;1277;109798;-67
2022/05/16 08:28:32;;;;;;;0.40;0.10;;;;;;;18.84;30.64;100892.98;103706;1277;99363;-64
2022/05/16 08:31:01;;;;;;;0.40;0.10;;;;;;;18.99;30.64;100892.41;103598;1277;137975;-65
2022/05/16 08:33:29;;;;;;;0.40;0.10;;;;;;;19.15;30.79;100893.52;103660;1277;95228;-65
2022/05/16 08:41:51;;;;;;;0.40;0.10;;;;;;;19.63;30.34;100898.99;103390;1277;138766;-65
2022/05/16 08:44:29;;;;;;;0.40;0.10;;;;;;;19.76;29.10;100893.77;103651;1277;109331;-65
2022/05/16 08:47:01;;;;;;;0.40;0.10;;;;;;;19.81;29.88;100895.30;103710;1277;138670;-65
2022/05/16 08:49:36;;;;;;;0.40;0.10;;;;;;;20.03;29.61;100897.70;103802;1277;95863;-64
2022/05/16 08:52:19;;;;;;;0.40;0.10;;;;;;;20.03;28.25;100895.30;103779;1276;108131;-68
2022/05/16 08:55:05;;;;;;;0.40;0.10;;;;;;;19.98;28.30;100891.46;103551;1277;138818;-65
2022/05/16 08:58:09;;;;;;;0.40;0.10;;;;;;;20.06;28.78;100892.45;104004;1277;108771;-66
2022/05/16 09:00:47;;;;;;;0.40;0.10;;;;;;;20.40;28.24;100895.35;103503;1277;138529;-66
2022/05/16 09:03:23;;;;;;;0.40;0.10;;;;;;;20.70;27.78;100894.98;103708;1276;96080;-66
2022/05/16 09:06:12;;;;;;;0.40;0.10;;;;;;;20.92;27.24;100890.98;103544;1277;138114;-67
2022/05/16 09:09:03;;;;;;;0.40;0.10;;;;;;;20.90;24.95;100890.55;103703;1277;99620;-66
2022/05/16 09:12:13;;;;;;;0.40;0.10;;;;;;;20.84;26.46;100895.09;103749;1274;138182;-66
2022/05/16 09:14:52;;;;;;;0.40;0.10;;;;;;;20.92;26.04;100893.16;103451;1277;95837;-64
2022/05/16 09:17:39;;;;;;;0.40;0.10;;;;;;;20.95;25.96;100888.80;103392;1274;138285;-66
2022/05/16 09:20:25;;;;;;;0.40;0.10;;;;;;;21.18;26.55;100891.17;103877;1277;109753;-65
2022/05/16 09:23:05;;;;;;;0.40;0.10;;;;;;;21.55;27.64;100885.21;103803;1277;139072;-66
2022/05/16 09:25:58;;;;;;;0.40;0.10;;;;;;;22.50;26.88;100889.05;103613;1277;108844;-65
2022/05/16 09:28:35;;;;;;;0.40;0.10;;;;;;;24.31;24.35;100879.64;103574;1277;95273;-65
2022/05/16 09:31:42;;;;;;;0.40;0.10;;;;;;;25.79;22.12;100879.48;103756;1276;138004;-65
2022/05/16 09:34:12;;;;;;;0.40;0.10;;;;;;;27.64;21.20;100876.09;103615;1275;108702;-66
2022/05/16 09:36:45;;;;;;;0.40;0.00;;;;;;;28.85;19.64;100883.36;103780;1276;138434;-66
2022/05/16 09:39:19;;;;;;;0.40;0.00;;;;;;;29.88;17.73;100882.16;103866;1276;107808;-66
2022/05/16 09:42:03;;;;;;;0.40;0.00;;;;;;;30.84;17.52;100885.17;103931;1276;138957;-66
2022/05/16 09:44:46;;;;;;;0.40;0.00;;;;;;;31.77;16.41;100886.29;103544;1275;95197;-66
2022/05/16 09:47:29;;;;;;;0.40;0.00;;;;;;;32.33;15.26;100881.34;103594;1277;138740;-66
2022/05/16 09:50:03;;;;;;;0.40;0.00;;;;;;;32.57;15.42;100883.24;103536;1277;98033;-66
2022/05/16 09:52:34;;;;;;;0.40;0.00;;;;;;;33.17;14.74;100881.98;103602;1277;109048;-66
2022/05/16 09:55:10;;;;;;;0.40;0.00;;;;;;;33.37;13.15;100884.56;103688;1277;138208;-66
2022/05/16 09:58:10;;;;;;;0.40;0.00;;;;;;;33.63;13.44;100885.63;103804;1277;95713;-67
2022/05/16 10:00:44;;;;;;;0.40;0.00;;;;;;;34.09;12.50;100879.60;103316;1277;138260;-66
2022/05/16 10:03:20;;;;;;;0.40;0.00;;;;;;;34.07;13.65;100878.04;103615;1277;98142;-65
2022/05/16 10:05:51;;;;;;;0.40;0.00;;;;;;;34.80;13.21;100880.44;103546;1277;138116;-64
2022/05/16 10:08:47;;;;;;;0.40;0.00;;;;;;;35.47;12.87;100881.19;103730;1277;95354;-65
2022/05/16 10:11:21;;;;;;;0.40;0.00;;;;;;;35.85;12.53;100888.12;103529;1278;138237;-65
2022/05/16 10:13:51;;;;;;;0.40;0.00;;;;;;;35.78;12.08;100887.87;103537;1274;110021;-65
2022/05/16 10:16:22;;;;;;;0.40;0.00;;;;;;;36.03;11.74;100887.23;103672;1274;98353;-66
2022/05/16 10:19:13;;;;;;;0.40;0.00;;;;;;;36.35;12.08;100887.23;103669;1275;137878;-66
2022/05/16 10:21:54;;;;;;;0.40;0.00;;;;;;;36.85;11.67;100886.77;103584;1274;95704;-66
2022/05/16 10:24:25;;;;;;;0.40;0.00;;;;;;;37.15;11.12;100885.45;103402;1277;138861;-66
2022/05/16 10:26:56;;;;;;;0.40;0.00;;;;;;;36.89;11.00;100882.47;103578;1277;109700;-64
2022/05/16 10:29:29;;;;;;;0.40;0.00;;;;;;;37.00;10.56;100876.64;103745;1277;139152;-66
2022/05/16 10:35:02;;;;;;;0.40;0.00;;;;;;;37.17;10.41;100875.65;103434;1275;138491;-66
2022/05/16 10:37:37;;;;;;;0.40;0.00;;;;;;;36.81;11.01;100877.90;103886;1276;96110;-66
2022/05/16 10:40:24;;;;;;;0.40;0.00;;;;;;;37.08;10.59;100875.27;103833;1277;109814;-66
2022/05/16 10:43:16;;;;;;;0.40;0.00;;;;;;;37.39;11.11;100867.59;103491;1277;138319;-67
2022/05/16 10:45:52;;;;;;;0.40;0.00;;;;;;;37.82;10.69;100868.40;103329;1277;107806;-66
2022/05/16 10:48:51;;;;;;;0.40;0.00;;;;;;;37.90;10.59;100868.36;103492;1275;138800;-67
2022/05/16 10:51:28;;;;;;;0.40;0.00;;;;;;;37.98;10.08;100864.09;103651;1277;95134;-66
2022/05/16 10:54:18;;;;;;;0.40;0.00;;;;;;;37.86;10.73;100862.82;103720;1277;138506;-67
2022/05/16 10:57:06;;;;;;;0.40;0.00;;;;;;;37.27;10.74;100860.27;103895;1276;99352;-68
2022/05/16 11:00:11;;;;;;;0.40;0.00;;;;;;;35.66;11.42;100861.23;103579;1277;138102;-67
2022/05/16 11:03:04;;;;;;;0.40;0.00;;;;;;;34.47;12.10;100855.24;103512;1276;95237;-67
2022/05/16 11:05:39;;;;;;;0.40;0.00;;;;;;;33.37;12.92;100850.90;103535;1276;139080;-66
2022/05/16 11:08:37;;;;;;;0.40;0.00;;;;;;;32.44;13.09;100850.65;103648;1277;109985;-67
2022/05/16 11:11:14;;;;;;;0.40;0.00;;;;;;;31.40;13.85;100843.67;103653;1277;138558;-68
2022/05/16 11:13:51;;;;;;;0.40;0.00;;;;;;;30.62;14.50;100840.56;103645;1277;108814;-67
2022/05/16 11:16:32;;;;;;;0.40;0.00;;;;;;;29.78;14.97;100833.47;103772;1276;95277;-67
2022/05/16 11:19:48;;;;;;;0.40;0.00;;;;;;;28.99;15.45;100822.80;103793;1277;137956;-67
2022/05/16 11:22:29;;;;;;;0.40;0.00;;;;;;;27.71;15.93;100821.27;103427;1281;108739;-67
2022/05/16 11:25:12;;;;;;;0.40;0.00;;;;;;;27.06;16.74;100831.52;103225;1281;138286;-66
2022/05/16 11:28:02;;;;;;;0.40;0.00;;;;;;;26.71;17.53;100836.82;103603;1278;109519;-65
2022/05/16 11:30:34;;;;;;;0.40;0.00;;;;;;;26.32;17.68;100834.31;103562;1277;138310;-65
2022/05/16 11:33:30;;;;;;;0.40;0.00;;;;;;;26.01;18.30;100830.57;103672;1275;95624;-67
2022/05/16 11:36:15;;;;;;;0.40;0.00;;;;;;;25.47;18.18;100826.83;103444;1274;138087;-65
2022/05/16 11:39:12;;;;;;;0.40;0.00;;;;;;;25.40;18.70;100822.65;103497;1277;99370;-67
2022/05/16 11:42:05;;;;;;;0.40;0.00;;;;;;;25.33;18.78;100824.69;103380;1277;138100;-67
2022/05/16 11:44:40;;;;;;;0.40;0.00;;;;;;;25.11;18.77;100821.89;103525;1274;95253;-66
2022/05/16 11:47:20;;;;;;;0.40;0.00;;;;;;;24.87;18.30;100816.73;103360;1277;140608;-67
2022/05/16 11:50:11;;;;;;;0.40;0.10;;;;;;;24.53;18.39;100811.04;103738;1274;109778;-64
2022/05/16 11:53:15;;;;;;;0.40;0.00;;;;;;;24.27;19.09;100806.88;103465;1275;138578;-67
2022/05/16 12:02:06;;;;;;;0.40;0.00;;;;;;;23.97;20.07;100812.80;103558;1274;95220;-65
2022/05/16 12:04:40;;;;;;;0.40;0.00;;;;;;;23.64;19.45;100795.80;103651;1277;109717;-65
2022/05/16 12:07:38;;;;;;;0.40;0.00;;;;;;;23.45;20.31;100801.59;104058;1276;99403;-66
2022/05/16 12:10:15;;;;;;;0.40;0.00;;;;;;;23.34;20.08;100800.60;103442;1274;108187;-66
2022/05/16 12:12:48;;;;;;;0.40;0.00;;;;;;;23.27;20.28;100804.55;103499;1275;138783;-65
2022/05/16 12:15:16;;;;;;;0.40;0.00;;;;;;;23.29;20.35;100801.35;103513;1274;95221;-67
2022/05/16 12:17:49;;;;;;;0.40;0.00;;;;;;;23.28;19.72;100799.81;103387;1274;137219;-66